Time;durP1;ratioP1;P1;durP2;ratioP2;P2;SDS_P1;SDS_P2;PMS_P1;PMS_P2;Temp;Humidity;BMP_temperature;BMP_pressure;BME280_temperature;BME280_humidity;BME280_pressure;Samples;Min_cycle;Max_cycle;Signal;HPM_P1;HPM_P2
2023/09/12 00:01:22;;;;;;;;;;;;;;;21.76;62.80;100732.50;4978312;28;6154;-67
2023/09/12 00:03:49;;;;;;;;;;;;;;;21.78;62.60;100732.59;4975307;28;2189;-67
2023/09/12 00:06:15;;;;;;;;;;;;;;;21.75;62.61;100737.53;4977795;28;2248;-67
2023/09/12 00:08:42;;;;;;;;;;;;;;;21.78;62.60;100746.25;4977420;28;2188;-67
2023/09/12 00:11:12;;;;;;;;;;;;;;;21.80;62.53;100744.19;4977422;28;2238;-67
2023/09/12 00:13:38;;;;;;;;;;;;;;;21.79;62.86;100753.53;4992630;28;2158;-67
2023/09/12 00:16:05;;;;;;;;;;;;;;;21.79;62.59;100747.75;4990332;28;2167;-67
2023/09/12 00:18:34;;;;;;;;;;;;;;;21.80;62.53;100755.00;4976738;28;2187;-67
2023/09/12 00:21:00;;;;;;;;;;;;;;;21.78;62.88;100740.50;4976310;28;2203;-67
2023/09/12 00:23:27;;;;;;;;;;;;;;;21.80;62.68;100749.97;4972522;28;2184;-66
2023/09/12 00:25:53;;;;;;;;;;;;;;;21.78;62.98;100743.38;4976007;28;2183;-67
2023/09/12 00:28:20;;;;;;;;;;;;;;;21.78;62.77;100749.16;4975392;28;2208;-67
2023/09/12 00:30:46;;;;;;;;;;;;;;;21.77;62.95;100742.66;4976848;28;6081;-67
2023/09/12 00:33:13;;;;;;;;;;;;;;;21.74;63.27;100741.84;4977267;28;2188;-67
2023/09/12 00:35:39;;;;;;;;;;;;;;;21.74;62.98;100747.59;4974336;28;2319;-66
2023/09/12 00:38:09;;;;;;;;;;;;;;;21.74;63.42;100747.59;4975906;28;2435;-66
2023/09/12 00:40:35;;;;;;;;;;;;;;;21.73;63.19;100745.38;4977477;28;2419;-66
2023/09/12 00:43:01;;;;;;;;;;;;;;;21.72;63.51;100738.13;4977241;28;2113;-66
2023/09/12 00:45:28;;;;;;;;;;;;;;;21.72;63.32;100744.63;4977413;28;2200;-65
2023/09/12 00:47:54;;;;;;;;;;;;;;;21.73;63.36;100746.09;4976989;28;2235;-66
2023/09/12 00:50:21;;;;;;;;;;;;;;;21.70;63.24;100741.66;4977110;28;2275;-66
2023/09/12 00:52:47;;;;;;;;;;;;;;;21.73;63.01;100746.09;4977727;28;2256;-66
2023/09/12 00:55:14;;;;;;;;;;;;;;;21.72;63.14;100738.88;4978640;28;2196;-66
2023/09/12 00:57:40;;;;;;;;;;;;;;;21.73;63.00;100740.34;4976792;28;2248;-66
2023/09/12 01:00:12;;;;;;;;;;;;;;;21.72;63.34;100738.13;4975499;28;6257;-66
2023/09/12 01:02:42;;;;;;;;;;;;;;;21.70;63.21;100735.91;4990700;28;2202;-66
2023/09/12 01:05:09;;;;;;;;;;;;;;;21.70;63.20;100735.91;4975977;28;2189;-66
2023/09/12 01:07:35;;;;;;;;;;;;;;;21.69;63.24;100737.31;4991686;28;2245;-66
2023/09/12 01:10:02;;;;;;;;;;;;;;;21.65;63.00;100725.63;4975654;28;2223;-66
2023/09/12 01:12:29;;;;;;;;;;;;;;;21.65;63.19;100731.41;4977158;28;2312;-66
2023/09/12 01:14:55;;;;;;;;;;;;;;;21.65;62.68;100736.44;4975616;28;2200;-66
2023/09/12 01:17:25;;;;;;;;;;;;;;;21.64;62.95;100737.81;4974050;28;2747;-66
2023/09/12 01:19:51;;;;;;;;;;;;;;;21.65;62.73;100730.66;4991517;28;2222;-66
2023/09/12 01:22:37;;;;;;;;;;;;;;;21.63;62.84;100734.19;4975558;28;2202;-66
2023/09/12 01:25:07;;;;;;;;;;;;;;;21.62;62.92;100738.47;4987383;28;2334;-66
2023/09/12 01:27:34;;;;;;;;;;;;;;;21.62;62.99;100729.81;4973841;28;2184;-66
2023/09/12 01:30:03;;;;;;;;;;;;;;;21.61;62.67;100734.09;4971047;28;2383;-66
2023/09/12 01:32:30;;;;;;;;;;;;;;;21.62;62.92;100735.56;4973972;28;8164;-66
2023/09/12 01:34:57;;;;;;;;;;;;;;;21.59;62.85;100731.16;4972626;28;2689;-66
2023/09/12 01:37:23;;;;;;;;;;;;;;;21.59;62.88;100730.41;4975065;28;2430;-66
2023/09/12 01:39:50;;;;;;;;;;;;;;;21.57;62.87;100727.44;4989738;28;2762;-66
2023/09/12 01:42:17;;;;;;;;;;;;;;;21.53;62.75;100733.78;4988894;28;2230;-66
2023/09/12 01:44:44;;;;;;;;;;;;;;;21.52;62.51;100721.53;4977344;28;2323;-66
2023/09/12 01:47:10;;;;;;;;;;;;;;;21.54;62.31;100726.63;4974223;28;2352;-65
2023/09/12 01:49:37;;;;;;;;;;;;;;;21.53;62.53;100725.13;4989930;28;2296;-66
2023/09/12 01:52:04;;;;;;;;;;;;;;;21.51;62.12;100727.97;4972719;28;2211;-66
2023/09/12 01:54:30;;;;;;;;;;;;;;;21.49;62.58;100727.88;4976064;28;2249;-66
2023/09/12 01:56:57;;;;;;;;;;;;;;;21.51;62.46;100725.81;4970502;28;2296;-66
2023/09/12 01:59:24;;;;;;;;;;;;;;;21.51;62.26;100719.31;4988448;28;2195;-66
2023/09/12 02:01:51;;;;;;;;;;;;;;;21.50;62.27;100723.59;4970797;28;6391;-66
2023/09/12 02:04:17;;;;;;;;;;;;;;;21.48;62.34;100714.84;4972496;28;2183;-66
2023/09/12 02:06:43;;;;;;;;;;;;;;;21.49;62.39;100722.13;4974766;28;2167;-66
2023/09/12 02:09:10;;;;;;;;;;;;;;;21.50;62.06;100712.06;4986737;28;2242;-66
2023/09/12 02:11:36;;;;;;;;;;;;;;;21.48;61.81;100709.84;4974277;28;2357;-67
2023/09/12 02:14:03;;;;;;;;;;;;;;;21.48;61.87;100706.22;4973162;28;2267;-66
2023/09/12 02:16:30;;;;;;;;;;;;;;;21.48;61.79;100715.59;4973218;28;2192;-66
2023/09/12 02:18:57;;;;;;;;;;;;;;;21.45;61.99;100710.44;4968512;28;2334;-66
2023/09/12 02:21:23;;;;;;;;;;;;;;;21.45;61.98;100701.78;4973999;28;2442;-66
2023/09/12 02:23:50;;;;;;;;;;;;;;;21.45;61.76;100710.44;4984499;28;2177;-66
2023/09/12 02:26:16;;;;;;;;;;;;;;;21.42;61.63;100712.50;4975367;28;2271;-67
2023/09/12 02:28:42;;;;;;;;;;;;;;;21.41;61.87;100711.00;4972596;28;2178;-66
2023/09/12 02:31:11;;;;;;;;;;;;;;;21.42;61.88;100718.25;4963168;28;6382;-66
2023/09/12 02:33:38;;;;;;;;;;;;;;;21.42;61.77;100706.00;4953119;28;2253;-66
2023/09/12 02:36:05;;;;;;;;;;;;;;;21.40;62.09;100705.88;4970526;28;2557;-66
2023/09/12 02:38:32;;;;;;;;;;;;;;;21.40;62.01;100711.66;4968331;28;2299;-66
2023/09/12 02:40:58;;;;;;;;;;;;;;;21.40;61.70;100703.00;4970329;28;2172;-66
2023/09/12 02:43:25;;;;;;;;;;;;;;;21.38;61.76;100712.28;4953918;28;2205;-66
2023/09/12 02:45:51;;;;;;;;;;;;;;;21.37;61.77;100705.03;4955060;28;2205;-66
2023/09/12 02:48:18;;;;;;;;;;;;;;;21.39;62.02;100701.50;4956337;28;2256;-66
2023/09/12 02:50:44;;;;;;;;;;;;;;;21.37;61.90;100699.28;4970437;28;2282;-66
2023/09/12 02:53:11;;;;;;;;;;;;;;;21.36;61.63;100702.84;4955486;28;2496;-66
2023/09/12 02:55:40;;;;;;;;;;;;;;;21.37;61.87;100693.53;4955587;28;2220;-66
2023/09/12 02:58:07;;;;;;;;;;;;;;;21.33;61.60;100694.13;4952801;28;2240;-66
2023/09/12 03:00:37;;;;;;;;;;;;;;;21.33;61.73;100694.13;4956217;28;6296;-66
2023/09/12 03:03:04;;;;;;;;;;;;;;;21.32;61.72;100691.88;4971075;28;2188;-66
2023/09/12 03:05:30;;;;;;;;;;;;;;;21.32;61.80;100686.13;4970103;28;2193;-66
2023/09/12 03:07:57;;;;;;;;;;;;;;;21.32;61.86;100689.00;4971780;28;2383;-65
2023/09/12 03:10:23;;;;;;;;;;;;;;;21.34;61.67;100689.09;4954754;28;2169;-66
2023/09/12 03:12:50;;;;;;;;;;;;;;;21.34;61.74;100698.47;4956546;28;2110;-66
2023/09/12 03:15:16;;;;;;;;;;;;;;;21.36;62.07;100697.06;4953856;28;2263;-66
2023/09/12 03:17:44;;;;;;;;;;;;;;;21.33;61.78;100694.13;4968368;28;2271;-66
2023/09/12 03:20:10;;;;;;;;;;;;;;;21.30;62.00;100701.19;4966580;28;2423;-66
2023/09/12 03:22:37;;;;;;;;;;;;;;;21.36;62.24;100691.31;4956372;28;2241;-66
2023/09/12 03:25:05;;;;;;;;;;;;;;;21.34;62.10;100695.59;4971107;28;2350;-66
2023/09/12 03:27:35;;;;;;;;;;;;;;;21.31;62.38;100691.16;4969571;28;2237;-66
2023/09/12 03:30:01;;;;;;;;;;;;;;;21.32;62.23;100694.75;4957015;28;2198;-66
2023/09/12 03:32:28;;;;;;;;;;;;;;;21.31;61.99;100696.19;4958140;28;6053;-66
2023/09/12 03:34:54;;;;;;;;;;;;;;;21.34;62.18;100701.34;4956407;28;2252;-66
2023/09/12 03:37:21;;;;;;;;;;;;;;;21.37;62.25;100701.41;4958344;28;2375;-65
2023/09/12 03:39:48;;;;;;;;;;;;;;;21.36;62.33;100705.72;4972185;28;2308;-66
2023/09/12 03:42:14;;;;;;;;;;;;;;;21.36;62.29;100703.56;4956158;28;2237;-66
2023/09/12 03:44:41;;;;;;;;;;;;;;;21.34;62.62;100701.34;4957176;28;2174;-66
2023/09/12 03:47:07;;;;;;;;;;;;;;;21.32;62.89;100707.03;4953934;28;2231;-66
2023/09/12 03:49:34;;;;;;;;;;;;;;;21.32;62.95;100709.16;4958352;28;2237;-66
2023/09/12 03:52:00;;;;;;;;;;;;;;;21.31;63.09;100699.78;4968420;28;2310;-66
2023/09/12 03:54:26;;;;;;;;;;;;;;;21.32;63.01;100709.91;4971552;28;2408;-66
2023/09/12 03:56:53;;;;;;;;;;;;;;;21.31;63.08;100714.19;4955644;28;2181;-66
2023/09/12 03:59:19;;;;;;;;;;;;;;;21.32;63.11;100709.91;4970117;28;2461;-66
2023/09/12 04:01:47;;;;;;;;;;;;;;;21.33;62.90;100704.91;4970732;28;6204;-66
2023/09/12 04:04:14;;;;;;;;;;;;;;;21.31;63.00;100702.66;4957726;28;2193;-67
2023/09/12 04:06:40;;;;;;;;;;;;;;;21.28;63.05;100704.00;4959434;28;2214;-67
2023/09/12 04:09:07;;;;;;;;;;;;;;;21.27;63.08;100708.25;4957294;28;2213;-66
2023/09/12 04:11:33;;;;;;;;;;;;;;;21.27;63.05;100702.50;4960122;28;2214;-66
2023/09/12 04:14:12;;;;;;;;;;;;;;;21.27;63.45;100701.75;4953473;28;2428;-66
2023/09/12 04:16:39;;;;;;;;;;;;;;;21.27;63.06;100696.00;4957006;28;2189;-66
2023/09/12 04:19:05;;;;;;;;;;;;;;;21.26;63.04;100695.28;4969778;28;2193;-66
2023/09/12 04:21:32;;;;;;;;;;;;;;;21.21;62.81;100693.63;4972416;28;2200;-66
2023/09/12 04:23:58;;;;;;;;;;;;;;;20.63;64.08;100707.06;4958174;28;2412;-63
2023/09/12 04:26:25;;;;;;;;;;;;;;;20.52;64.70;100702.97;4958136;28;2304;-63
2023/09/12 04:28:51;;;;;;;;;;;;;;;20.34;65.35;100705.03;4958030;28;2232;-64
2023/09/12 04:31:18;;;;;;;;;;;;;;;20.21;65.76;100709.53;4956843;28;6234;-65
2023/09/12 04:33:44;;;;;;;;;;;;;;;20.14;65.86;100713.53;4967095;28;2181;-64
2023/09/12 04:36:11;;;;;;;;;;;;;;;20.02;66.21;100713.69;4970394;28;2824;-65
2023/09/12 04:38:37;;;;;;;;;;;;;;;20.01;66.63;100703.59;4972055;28;2368;-64
2023/09/12 04:41:07;;;;;;;;;;;;;;;20.01;66.76;100712.97;4970658;28;2121;-65
2023/09/12 04:43:33;;;;;;;;;;;;;;;19.97;66.53;100715.66;4973617;28;2235;-65
2023/09/12 04:46:00;;;;;;;;;;;;;;;20.02;66.84;100723.09;4972882;28;2164;-65
2023/09/12 04:48:27;;;;;;;;;;;;;;;20.03;67.28;100718.81;4974056;28;2137;-65
2023/09/12 04:50:53;;;;;;;;;;;;;;;20.03;66.88;100709.44;4959661;28;1609;-65
2023/09/12 04:53:20;;;;;;;;;;;;;;;20.00;67.28;100720.13;4972651;28;1918;-65
2023/09/12 04:55:46;;;;;;;;;;;;;;;19.93;67.40;100721.22;4973243;28;2097;-65
2023/09/12 04:58:12;;;;;;;;;;;;;;;19.80;67.76;100716.31;4958752;28;1594;-65
2023/09/12 05:00:39;;;;;;;;;;;;;;;19.84;67.66;100719.38;4973867;28;7054;-65
2023/09/12 05:03:05;;;;;;;;;;;;;;;19.86;67.82;100722.34;4972782;28;1659;-69
2023/09/12 05:05:34;;;;;;;;;;;;;;;19.84;67.84;100719.38;4973639;28;1660;-69
2023/09/12 05:08:00;;;;;;;;;;;;;;;19.78;68.05;100716.94;4972690;28;1587;-67
2023/09/12 05:10:27;;;;;;;;;;;;;;;19.76;68.20;100724.72;4960103;28;1680;-67
2023/09/12 05:12:53;;;;;;;;;;;;;;;19.79;68.09;100723.41;4974532;28;2272;-67
2023/09/12 05:15:19;;;;;;;;;;;;;;;19.70;68.54;100721.56;4955591;28;2137;-67
2023/09/12 05:17:46;;;;;;;;;;;;;;;19.69;68.80;100731.59;4972607;28;2677;-67
2023/09/12 05:20:12;;;;;;;;;;;;;;;19.80;68.92;100731.41;4956853;28;2098;-67
2023/09/12 05:22:39;;;;;;;;;;;;;;;19.86;68.77;100733.84;4957339;28;2228;-67
2023/09/12 05:25:05;;;;;;;;;;;;;;;19.86;69.01;100728.09;4972598;28;2209;-67
2023/09/12 05:27:32;;;;;;;;;;;;;;;19.90;69.56;100733.25;4956365;28;2212;-67
2023/09/12 05:29:58;;;;;;;;;;;;;;;19.85;69.47;100732.34;4970934;28;2228;-67
2023/09/12 05:32:25;;;;;;;;;;;;;;;19.88;69.80;100728.16;4960115;28;6108;-68
2023/09/12 05:34:51;;;;;;;;;;;;;;;19.92;69.98;100731.22;4970462;28;2216;-67
2023/09/12 05:37:28;;;;;;;;;;;;;;;19.92;69.97;100736.97;4958315;28;2213;-67
2023/09/12 05:39:55;;;;;;;;;;;;;;;19.97;70.25;100741.50;4971117;28;2062;-67
2023/09/12 05:42:22;;;;;;;;;;;;;;;20.00;70.63;100737.34;4970543;28;2231;-66
2023/09/12 05:44:49;;;;;;;;;;;;;;;20.08;71.06;100754.97;4970898;28;2193;-67
2023/09/12 05:47:16;;;;;;;;;;;;;;;20.08;71.36;100752.09;4972006;28;2193;-67
2023/09/12 05:49:42;;;;;;;;;;;;;;;20.14;72.16;100762.41;4957314;28;2248;-67
2023/09/12 05:52:09;;;;;;;;;;;;;;;20.14;72.76;100748.75;4955763;28;2209;-66
2023/09/12 05:54:36;;;;;;;;;;;;;;;20.19;72.92;100759.06;4970541;28;2423;-66
2023/09/12 05:57:03;;;;;;;;;;;;;;;20.24;73.27;100754.22;4971123;28;2354;-67
2023/09/12 05:59:30;;;;;;;;;;;;;;;20.27;73.56;100747.16;4956016;28;2241;-67
2023/09/12 06:01:56;;;;;;;;;;;;;;;20.33;73.91;100750.31;4916711;28;6226;-67
2023/09/12 06:04:23;;;;;;;;;;;;;;;20.35;74.24;100756.16;4932360;28;2344;-66
2023/09/12 06:06:50;;;;;;;;;;;;;;;20.32;74.40;100753.84;4920034;29;2347;-67
2023/09/12 06:09:16;;;;;;;;;;;;;;;20.39;74.74;100753.47;4918057;29;2207;-67
2023/09/12 06:11:42;;;;;;;;;;;;;;;20.46;75.28;100752.34;4917984;29;2158;-67
2023/09/12 06:14:09;;;;;;;;;;;;;;;20.48;75.44;100758.19;4917770;28;2118;-67
2023/09/12 06:16:35;;;;;;;;;;;;;;;20.47;74.79;100762.44;4918252;29;2035;-68
2023/09/12 06:19:02;;;;;;;;;;;;;;;20.49;74.61;100759.66;4915807;29;2184;-68
2023/09/12 06:21:28;;;;;;;;;;;;;;;20.55;74.76;100770.72;4917915;29;2168;-68
2023/09/12 06:24:13;;;;;;;;;;;;;;;20.55;74.36;100767.06;4918091;29;2196;-68
2023/09/12 06:26:40;;;;;;;;;;;;;;;20.62;73.75;100768.88;4917241;29;2352;-67
2023/09/12 06:29:06;;;;;;;;;;;;;;;20.66;72.58;100774.78;4917118;29;2175;-68
2023/09/12 06:31:33;;;;;;;;;;;;;;;20.73;72.22;100784.44;4917893;28;6066;-68
2023/09/12 06:33:59;;;;;;;;;;;;;;;20.73;71.89;100778.69;4916365;29;2231;-68
2023/09/12 06:36:26;;;;;;;;;;;;;;;20.73;72.38;100772.91;4917630;29;2263;-68
2023/09/12 06:38:53;;;;;;;;;;;;;;;20.68;72.16;100783.50;4915654;29;2209;-67
2023/09/12 06:41:19;;;;;;;;;;;;;;;20.72;71.77;100786.56;4917267;29;2204;-67
2023/09/12 06:43:46;;;;;;;;;;;;;;;20.84;71.12;100792.09;4916569;29;2060;-69
2023/09/12 06:46:12;;;;;;;;;;;;;;;20.93;70.79;100788.91;4916293;29;2112;-70
2023/09/12 06:48:39;;;;;;;;;;;;;;;21.03;70.08;100785.03;4917186;29;2110;-69
2023/09/12 06:51:07;;;;;;;;;;;;;;;21.05;69.56;100791.59;4918837;29;1921;-69
2023/09/12 06:53:41;;;;;;;;;;;;;;;21.06;69.36;100786.56;4920055;29;1919;-69
2023/09/12 06:56:08;;;;;;;;;;;;;;;21.08;69.16;100778.03;4919376;29;2166;-69
2023/09/12 06:58:34;;;;;;;;;;;;;;;21.08;69.02;100780.91;4922859;29;1649;-68
2023/09/12 07:01:04;;;;;;;;;;;;;;;21.11;68.72;100785.34;4946413;28;6691;-69
2023/09/12 07:03:34;;;;;;;;;;;;;;;21.12;68.65;100772.44;4960808;28;1602;-69
2023/09/12 07:06:01;;;;;;;;;;;;;;;21.13;68.44;100794.06;4959508;28;1718;-69
2023/09/12 07:08:28;;;;;;;;;;;;;;;21.14;68.25;100786.91;4962186;28;1816;-69
2023/09/12 07:10:56;;;;;;;;;;;;;;;21.16;67.97;100789.88;4976863;28;1742;-69
2023/09/12 07:13:23;;;;;;;;;;;;;;;21.17;67.81;100791.38;4960904;28;1911;-69
2023/09/12 07:15:49;;;;;;;;;;;;;;;21.17;67.66;100785.63;4961212;28;1851;-69
2023/09/12 07:18:16;;;;;;;;;;;;;;;21.19;67.63;100788.56;4960449;28;1530;-69
2023/09/12 07:20:43;;;;;;;;;;;;;;;21.21;67.33;100790.78;4958715;28;1809;-69
2023/09/12 07:23:09;;;;;;;;;;;;;;;21.22;67.21;100793.00;4959483;28;1718;-69
2023/09/12 07:25:41;;;;;;;;;;;;;;;21.23;67.07;100782.97;4959574;28;2091;-70
2023/09/12 07:28:07;;;;;;;;;;;;;;;21.23;67.43;100794.47;4958754;28;2228;-69
2023/09/12 07:30:34;;;;;;;;;;;;;;;21.28;67.09;100784.63;4958602;28;6188;-69
2023/09/12 07:33:02;;;;;;;;;;;;;;;21.29;67.30;100785.38;4973064;28;2264;-70
2023/09/12 07:35:30;;;;;;;;;;;;;;;21.30;66.96;100790.47;4960449;28;2175;-69
2023/09/12 07:37:56;;;;;;;;;;;;;;;21.34;66.88;100776.22;4958257;28;2327;-69
2023/09/12 07:40:23;;;;;;;;;;;;;;;21.37;66.79;100774.16;4957499;28;2149;-69
2023/09/12 07:42:49;;;;;;;;;;;;;;;21.38;66.69;100775.66;4956417;28;2145;-69
2023/09/12 07:45:16;;;;;;;;;;;;;;;21.42;66.56;100787.38;4958543;28;2336;-68
2023/09/12 07:47:43;;;;;;;;;;;;;;;21.41;66.88;100788.78;4973601;28;2224;-68
2023/09/12 07:50:09;;;;;;;;;;;;;;;21.43;66.34;100782.38;4959065;28;2161;-69
2023/09/12 07:52:35;;;;;;;;;;;;;;;21.42;66.48;100784.50;4959412;28;2208;-69
2023/09/12 07:55:02;;;;;;;;;;;;;;;21.39;66.66;100779.28;4957812;28;2204;-69
2023/09/12 07:57:29;;;;;;;;;;;;;;;21.40;66.78;100780.78;4959560;28;2153;-69
2023/09/12 07:59:56;;;;;;;;;;;;;;;21.40;66.69;100778.66;4958361;28;1633;-68
2023/09/12 08:02:23;;;;;;;;;;;;;;;21.39;66.74;100776.41;4960492;28;6181;-68
2023/09/12 08:04:50;;;;;;;;;;;;;;;21.39;66.84;100776.41;4958872;28;1652;-68
2023/09/12 08:07:17;;;;;;;;;;;;;;;21.42;66.50;100775.88;4959951;28;1679;-68
2023/09/12 08:09:52;;;;;;;;;;;;;;;21.41;66.67;100785.16;4958144;28;1689;-69
2023/09/12 08:12:19;;;;;;;;;;;;;;;21.46;66.59;100776.03;4961020;28;1915;-69
2023/09/12 08:14:46;;;;;;;;;;;;;;;21.42;66.83;100775.88;4961224;28;1619;-68
2023/09/12 08:17:12;;;;;;;;;;;;;;;21.46;66.53;100775.28;4957140;28;2723;-69
2023/09/12 08:19:39;;;;;;;;;;;;;;;21.51;66.54;100769.03;4958970;28;1641;-69
2023/09/12 08:22:05;;;;;;;;;;;;;;;21.52;66.11;100769.75;4959722;28;1907;-68
2023/09/12 08:24:33;;;;;;;;;;;;;;;21.56;66.11;100767.06;4960422;28;2063;-68
2023/09/12 08:26:59;;;;;;;;;;;;;;;21.56;66.11;100778.56;4958711;28;1804;-68
2023/09/12 08:29:27;;;;;;;;;;;;;;;21.53;66.16;100783.53;4958185;28;1937;-69
2023/09/12 08:31:53;;;;;;;;;;;;;;;21.56;66.35;100783.59;4959947;28;6411;-68
2023/09/12 08:34:20;;;;;;;;;;;;;;;21.54;66.04;100792.91;4958928;28;2438;-68
2023/09/12 08:36:47;;;;;;;;;;;;;;;21.57;66.37;100785.06;4959529;28;2506;-67
2023/09/12 08:39:14;;;;;;;;;;;;;;;21.53;66.36;100791.41;4958492;28;2178;-68
2023/09/12 08:41:40;;;;;;;;;;;;;;;21.55;66.13;100788.59;4959109;28;1597;-67
2023/09/12 08:44:07;;;;;;;;;;;;;;;21.56;66.34;100790.09;4960715;28;1650;-67
2023/09/12 08:46:33;;;;;;;;;;;;;;;21.61;66.39;100797.50;4973389;28;1671;-68
2023/09/12 08:49:00;;;;;;;;;;;;;;;21.60;66.36;100803.91;4960326;28;1844;-68
2023/09/12 08:51:26;;;;;;;;;;;;;;;21.68;66.14;100819.41;4972888;28;1662;-67
2023/09/12 08:53:53;;;;;;;;;;;;;;;21.69;66.49;100823.78;4959869;28;1922;-67
2023/09/12 08:56:19;;;;;;;;;;;;;;;21.71;66.13;100835.38;4958959;28;1792;-67
2023/09/12 08:58:47;;;;;;;;;;;;;;;21.74;66.48;100839.81;4959156;28;1658;-67
2023/09/12 09:01:13;;;;;;;;;;;;;;;21.74;66.57;100834.06;4958773;28;6194;-66
2023/09/12 09:03:41;;;;;;;;;;;;;;;21.74;66.63;100851.34;4956193;28;2405;-67
2023/09/12 09:06:11;;;;;;;;;;;;;;;21.79;66.72;100846.50;4975277;28;2164;-67
2023/09/12 09:08:38;;;;;;;;;;;;;;;21.82;66.86;100841.56;4958495;28;2125;-67
2023/09/12 09:11:07;;;;;;;;;;;;;;;21.84;66.79;100847.41;4960242;28;2359;-67
2023/09/12 09:13:34;;;;;;;;;;;;;;;21.83;67.23;100852.44;4957939;28;1895;-68
2023/09/12 09:16:11;;;;;;;;;;;;;;;21.83;67.17;100845.91;4957852;28;1792;-67
2023/09/12 09:18:50;;;;;;;;;;;;;;;21.85;66.81;100857.50;4958146;28;1856;-68
2023/09/12 09:21:18;;;;;;;;;;;;;;;21.83;67.27;100869.72;4957893;28;2090;-67
2023/09/12 09:23:45;;;;;;;;;;;;;;;21.82;67.05;100859.59;4958159;28;1633;-67
2023/09/12 09:26:12;;;;;;;;;;;;;;;21.86;66.81;100856.88;4958218;28;1800;-67
2023/09/12 09:28:39;;;;;;;;;;;;;;;21.84;66.89;100851.03;4958696;28;1602;-67
2023/09/12 09:31:10;;;;;;;;;;;;;;;21.88;66.89;100853.34;4956000;28;6454;-67
2023/09/12 09:33:36;;;;;;;;;;;;;;;21.87;66.91;100858.34;4956925;28;2081;-67
2023/09/12 09:36:03;;;;;;;;;;;;;;;21.88;66.70;100853.34;4957610;28;1585;-68
2023/09/12 09:38:30;;;;;;;;;;;;;;;21.92;66.73;100853.47;4962583;28;1720;-67
2023/09/12 09:40:56;;;;;;;;;;;;;;;21.89;67.04;100854.81;4957247;28;1562;-67
2023/09/12 09:43:24;;;;;;;;;;;;;;;21.91;66.67;100840.47;4957791;28;1804;-69
2023/09/12 09:45:51;;;;;;;;;;;;;;;21.93;66.99;100849.19;4957235;28;1935;-68
2023/09/12 09:48:18;;;;;;;;;;;;;;;21.93;66.74;100844.16;4959768;28;1578;-67
2023/09/12 09:50:44;;;;;;;;;;;;;;;21.94;66.65;100836.25;4959268;28;1716;-68
2023/09/12 09:53:11;;;;;;;;;;;;;;;21.95;66.59;100835.59;4957260;28;1910;-67
2023/09/12 09:55:37;;;;;;;;;;;;;;;21.95;66.85;100818.31;4952961;28;2209;-68
2023/09/12 09:58:07;;;;;;;;;;;;;;;21.99;66.40;100823.50;4955329;28;2193;-67
2023/09/12 10:00:33;;;;;;;;;;;;;;;21.98;66.58;100822.00;4957094;28;6183;-66
2023/09/12 10:03:00;;;;;;;;;;;;;;;21.95;66.44;100823.34;4956642;28;2236;-67
2023/09/12 10:05:27;;;;;;;;;;;;;;;21.98;66.49;100815.50;4970011;28;2145;-67
2023/09/12 10:07:54;;;;;;;;;;;;;;;21.95;66.70;100808.94;4972520;28;1817;-67
2023/09/12 10:10:20;;;;;;;;;;;;;;;21.98;66.86;100812.63;4972457;28;2510;-67
2023/09/12 10:12:51;;;;;;;;;;;;;;;21.98;67.49;100793.19;4970641;28;2198;-67
2023/09/12 10:15:18;;;;;;;;;;;;;;;22.00;68.61;100795.41;4968491;28;2239;-67
2023/09/12 10:17:46;;;;;;;;;;;;;;;22.02;68.98;100798.38;4957124;28;2174;-66
2023/09/12 10:20:16;;;;;;;;;;;;;;;22.01;69.57;100786.06;4957864;28;1938;-67
2023/09/12 10:23:08;;;;;;;;;;;;;;;22.03;69.78;100791.19;4955822;28;1629;-67
2023/09/12 10:25:35;;;;;;;;;;;;;;;22.05;70.44;100794.88;4957631;28;2169;-67
2023/09/12 10:28:01;;;;;;;;;;;;;;;22.09;70.91;100795.06;4956871;28;2549;-66
2023/09/12 10:30:28;;;;;;;;;;;;;;;22.12;71.48;100801.63;4956016;28;6607;-67
2023/09/12 10:32:54;;;;;;;;;;;;;;;22.16;71.14;100813.31;4972637;28;2203;-67
2023/09/12 10:35:21;;;;;;;;;;;;;;;22.14;71.39;100804.59;4970340;28;2081;-68
2023/09/12 10:37:47;;;;;;;;;;;;;;;22.14;71.45;100813.97;4958870;28;1792;-67
2023/09/12 10:40:14;;;;;;;;;;;;;;;22.15;71.23;100806.81;4971503;28;2563;-67
2023/09/12 10:42:41;;;;;;;;;;;;;;;22.15;71.27;100801.06;4956980;28;2235;-67
2023/09/12 10:45:08;;;;;;;;;;;;;;;22.15;71.28;100803.94;4955822;28;2184;-67
2023/09/12 10:47:35;;;;;;;;;;;;;;;22.17;70.64;100806.91;4955778;28;2213;-68
2023/09/12 10:50:01;;;;;;;;;;;;;;;22.20;70.69;100818.53;4956661;28;2240;-68
2023/09/12 10:52:28;;;;;;;;;;;;;;;22.20;70.15;100804.09;4971692;28;2537;-67
2023/09/12 10:54:54;;;;;;;;;;;;;;;22.20;70.08;100796.19;4956986;28;2356;-67
2023/09/12 10:57:21;;;;;;;;;;;;;;;22.21;70.24;100814.22;4970594;28;2208;-68
2023/09/12 11:00:08;;;;;;;;;;;;;;;22.22;69.93;100809.94;4969553;28;2378;-68
2023/09/12 11:02:35;;;;;;;;;;;;;;;22.25;69.52;100809.38;4975947;28;5968;-68
2023/09/12 11:05:20;;;;;;;;;;;;;;;22.25;69.25;100800.00;4975208;28;2171;-68
2023/09/12 11:07:46;;;;;;;;;;;;;;;22.24;69.34;100807.16;4972984;28;2199;-69
2023/09/12 11:10:14;;;;;;;;;;;;;;;22.28;68.98;100810.94;4978405;28;2226;-71
2023/09/12 11:12:41;;;;;;;;;;;;;;;22.23;69.05;100797.03;4973713;28;2222;-71
2023/09/12 11:15:10;;;;;;;;;;;;;;;22.19;68.91;100797.56;4973000;28;2180;-72
2023/09/12 11:17:39;;;;;;;;;;;;;;;22.16;68.93;100802.53;4990008;28;2246;-72
2023/09/12 11:20:13;;;;;;;;;;;;;;;22.14;68.69;100799.56;4973744;28;2124;-70
2023/09/12 11:22:40;;;;;;;;;;;;;;;22.14;68.63;100796.69;4973971;28;2219;-71
2023/09/12 11:25:16;;;;;;;;;;;;;;;22.14;68.54;100796.69;4974559;28;1573;-72
2023/09/12 11:27:52;;;;;;;;;;;;;;;22.13;68.76;100806.75;4976370;28;1627;-71
2023/09/12 11:30:19;;;;;;;;;;;;;;;22.13;68.55;100812.50;4974218;28;6338;-72
2023/09/12 11:32:46;;;;;;;;;;;;;;;22.13;68.33;100806.75;4974548;28;1892;-72
2023/09/12 11:35:12;;;;;;;;;;;;;;;22.14;68.09;100810.38;4975873;28;1978;-72
2023/09/12 11:37:39;;;;;;;;;;;;;;;22.13;68.04;100809.63;4976381;28;1711;-72
2023/09/12 11:40:11;;;;;;;;;;;;;;;22.13;68.04;100803.88;4975809;28;1839;-73
2023/09/12 11:42:39;;;;;;;;;;;;;;;22.14;68.14;100804.59;4977221;28;1577;-72
2023/09/12 11:45:09;;;;;;;;;;;;;;;22.13;67.91;100791.59;4978857;28;1598;-72
2023/09/12 11:47:41;;;;;;;;;;;;;;;22.14;67.68;100793.06;4979055;28;1664;-71
2023/09/12 11:50:08;;;;;;;;;;;;;;;22.14;67.55;100799.56;4979537;28;1787;-71
2023/09/12 11:52:38;;;;;;;;;;;;;;;22.14;67.83;100788.03;4980531;28;2185;-72
2023/09/12 11:55:05;;;;;;;;;;;;;;;22.14;67.33;100790.19;4979233;28;1964;-71
2023/09/12 11:57:32;;;;;;;;;;;;;;;22.13;67.54;100798.09;4980001;28;1882;-71
2023/09/12 11:59:58;;;;;;;;;;;;;;;22.14;67.62;100793.78;4978928;28;1580;-71
2023/09/12 12:02:24;;;;;;;;;;;;;;;22.15;67.47;100797.41;4984319;28;6104;-71
2023/09/12 12:04:53;;;;;;;;;;;;;;;22.15;67.08;100797.41;4979191;28;1578;-72
2023/09/12 12:07:20;;;;;;;;;;;;;;;22.15;67.45;100795.28;4979965;28;1854;-71
2023/09/12 12:09:46;;;;;;;;;;;;;;;22.14;67.03;100793.78;4977976;28;1625;-71
2023/09/12 12:12:13;;;;;;;;;;;;;;;22.15;67.00;100789.53;4993291;28;1871;-71
2023/09/12 12:14:40;;;;;;;;;;;;;;;22.16;67.19;100793.13;4977603;28;1911;-72
2023/09/12 12:17:08;;;;;;;;;;;;;;;22.17;67.06;100794.59;4979686;28;1768;-72
2023/09/12 12:19:36;;;;;;;;;;;;;;;22.16;67.14;100790.25;4978509;28;1614;-71
2023/09/12 12:22:06;;;;;;;;;;;;;;;22.17;66.82;100795.38;4977998;28;1818;-71
2023/09/12 12:24:39;;;;;;;;;;;;;;;22.17;66.79;100792.47;4977326;28;1625;-71
2023/09/12 12:27:07;;;;;;;;;;;;;;;22.17;66.93;100792.47;4978384;28;1800;-71
2023/09/12 12:29:34;;;;;;;;;;;;;;;22.18;66.87;100788.19;4979006;28;1827;-72
2023/09/12 12:32:01;;;;;;;;;;;;;;;22.20;66.66;100781.03;4978268;28;6095;-71
2023/09/12 12:34:28;;;;;;;;;;;;;;;22.18;66.90;100770.88;4978128;28;1914;-71
2023/09/12 12:37:14;;;;;;;;;;;;;;;22.17;66.46;100766.53;4978182;28;1859;-71
2023/09/12 12:39:44;;;;;;;;;;;;;;;22.18;66.50;100770.88;4979224;28;1657;-71
2023/09/12 12:42:10;;;;;;;;;;;;;;;22.20;66.34;100760.84;4979411;28;1842;-71
2023/09/12 12:44:40;;;;;;;;;;;;;;;22.20;66.82;100755.06;4979310;28;1851;-72
2023/09/12 12:47:08;;;;;;;;;;;;;;;22.21;66.28;100756.53;4978496;28;1697;-71
2023/09/12 12:49:40;;;;;;;;;;;;;;;22.21;66.34;100750.78;4978989;28;1608;-71